Flight Track Log - Related Links

Times and Time Zones

All times are in EDT time to prevent confusion due to time zone crossing. See the N717AN flight status page for this flight to view local times or setup timezone preferences in your user account.

Time Position Orientation Groundspeed Altitude Reporting Facility
EDT Latitude Longitude Course Direction KTS MPH feet Rate Location/Type
Fri 06:02:54 AM 51.4646 -0.5010 269° West 198 228 1,100  Level FlightAware UK
Fri 06:03:17 AM 51.4642 -0.5327 268° West 178 205 2,200 2,462 Climbing FlightAware ADS-B
Fri 06:03:33 AM 51.4638 -0.5537 268° West 181 208 2,700 1,935 Climbing FlightAware ADS-B
Fri 06:03:48 AM 51.4634 -0.5742 268° West 182 209 3,200 1,548 Climbing FlightAware ADS-B
Fri 06:04:04 AM 51.4630 -0.5955 268° West 194 223 3,500 1,091 Climbing FlightAware ADS-B
Fri 06:04:10 AM 51.4628 -0.6055 268° West 201 231 3,600 1,091 Climbing FlightAware ADS-B
Fri 06:04:15 AM 51.4624 -0.6128 265° West 206 237 3,700 667 Climbing FlightAware ADS-B
Fri 06:04:19 AM 51.4619 -0.6181 261° West 211 243 3,700 545 Level FlightAware ADS-B
Fri 06:04:26 AM 51.4603 -0.6295 257° West 221 254 3,800 1,200 Climbing FlightAware ADS-B
Fri 06:04:29 AM 51.4595 -0.6344 255° West 226 260 3,900 1,000 Climbing FlightAware ADS-B
Fri 06:04:38 AM 51.4567 -0.6503 254° West 237 273 4,000 800 Climbing FlightAware ADS-B
Fri 06:04:44 AM 51.4553 -0.6601 257° West 242 278 4,100 1,500 Climbing FlightAware ADS-B
Fri 06:04:50 AM 51.4544 -0.6706 262° West 248 285 4,300 1,091 Climbing FlightAware ADS-B
Fri 06:04:55 AM 51.4540 -0.6794 266° West 254 292 4,300 923 Level FlightAware ADS-B
Fri 06:05:03 AM 51.4537 -0.6961 268° West 261 300 4,500 2,500 Climbing FlightAware ADS-B
Fri 06:05:19 AM 51.4538 -0.7266 270° West 261 300 5,300 2,710 Climbing FlightAware ADS-B
Fri 06:05:34 AM 51.4542 -0.7558 271° West 261 300 5,900 2,516 Climbing FlightAware ADS-B
Fri 06:05:50 AM 51.4543 -0.7875 270° West 263 303 6,600 2,438 Climbing FlightAware ADS-B
Fri 06:06:06 AM 51.4539 -0.8174 269° West 265 305 7,200 2,516 Climbing FlightAware ADS-B
Fri 06:06:21 AM 51.4534 -0.8474 268° West 267 307 7,900 2,609 Climbing FlightAware ADS-B
Fri 06:06:29 AM 51.4533 -0.8642 269° West 269 310 8,200 2,143 Climbing FlightAware ADS-B
Fri 06:06:35 AM 51.4535 -0.8759 272° West 270 311 8,400 1,636 Climbing FlightAware ADS-B
Fri 06:06:40 AM 51.4541 -0.8862 275° West 272 313 8,500 2,143 Climbing FlightAware ADS-B
Fri 06:06:49 AM 51.4555 -0.9031 278° West 272 313 8,900 2,625 Climbing FlightAware ADS-B
Fri 06:06:56 AM 51.4573 -0.9165 282° West 273 314 9,200 2,000 Climbing FlightAware ADS-B
Fri 06:07:01 AM 51.4594 -0.9266 289° West 274 315 9,300 1,500 Climbing FlightAware ADS-B
Fri 06:07:08 AM 51.4630 -0.9390 295° West 277 319 9,500 1,737 Climbing FlightAware ADS-B
Fri 06:07:39 AM 51.4827 -0.9972 299° West 293 337 10,400 1,469 Climbing FlightAware ADS-B
Fri 06:07:57 AM 51.4948 -1.0344 298° West 315 362 10,700 1,105 Climbing FlightAware ADS-B
Fri 06:08:17 AM 51.5082 -1.0765 297° West 332 382 11,100 1,556 Climbing FlightAware ADS-B
Fri 06:08:24 AM 51.5124 -1.0921 293° West 338 389 11,400 2,727 Climbing FlightAware ADS-B
Fri 06:08:50 AM 51.5253 -1.1568 288° West 347 399 12,600 2,211 Climbing FlightAware ADS-B
Fri 06:09:21 AM 51.5420 -1.2336 289° West 373 429 13,500 2,754 Climbing FlightAware ADS-B
Fri 06:09:51 AM 51.5596 -1.3122 290° West 368 423 15,400 3,300 Climbing FlightAware ADS-B
Fri 06:10:21 AM 51.5764 -1.3905 289° West 373 429 16,800 2,793 Climbing FlightAware ADS-B
Fri 06:10:49 AM 51.5920 -1.4627 289° West 379 436 18,100 2,483 Climbing FlightAware ADS-B
Fri 06:11:19 AM 51.6098 -1.5451 289° West 391 450 19,200 2,286 Climbing FlightAware ADS-B
Fri 06:11:52 AM 51.6289 -1.6351 289° West 398 458 20,500 2,323 Climbing FlightAware ADS-B
Fri 06:12:21 AM 51.6463 -1.7179 289° West 404 465 21,600 2,034 Climbing FlightAware ADS-B
Fri 06:12:51 AM 51.6645 -1.8047 289° West 415 478 22,500 1,700 Climbing FlightAware ADS-B
Fri 06:13:21 AM 51.6835 -1.8951 289° West 429 494 23,300 1,700 Climbing FlightAware ADS-B
Fri 06:13:51 AM 51.7025 -1.9873 288° West 438 504 24,200 1,839 Climbing FlightAware ADS-B
Fri 06:14:23 AM 51.7229 -2.0856 289° West 445 512 25,200 1,839 Climbing FlightAware ADS-B
Fri 06:14:53 AM 51.7426 -2.1814 288° West 451 519 26,100 1,300 Climbing FlightAware ADS-B
Fri 06:15:23 AM 51.7628 -2.2793 288° West 470 541 26,500 871 Climbing FlightAware ADS-B
Fri 06:15:55 AM 51.7851 -2.3876 288° West 484 557 27,000 1,385 Climbing FlightAware ADS-B
Fri 06:16:28 AM 51.8083 -2.5015 288° West 492 566 28,000 1,875 Climbing FlightAware ADS-B
Fri 06:16:59 AM 51.8270 -2.6116 285° West 494 568 29,000 1,688 Climbing FlightAware ADS-B
Fri 06:17:32 AM 51.8429 -2.7306 282° West 501 577 29,800 833 Climbing FlightAware ADS-B
Fri 06:18:11 AM 51.8627 -2.8758 283° West 503 579 30,000 169 Climbing FlightAware ADS-B
Fri 06:18:43 AM 51.8778 -2.9907 282° West 504 580 30,000  Level FlightAware ADS-B
Fri 06:19:15 AM 51.8935 -3.1089 282° West 501 577 30,000  Level FlightAware ADS-B
Fri 06:19:46 AM 51.9086 -3.2223 282° West 496 571 30,000  Level FlightAware UK
Fri 06:20:04 AM 51.9160 -3.2810 282° West 495 570 30,000 -91 Level FlightAware ADS-B
Fri 06:20:52 AM 51.9388 -3.4599 282° West 494 568 29,900  Descending FlightAware UK
Fri 06:20:59 AM 51.9370 -3.4460 282° West 492 566 30,000  Climbing FlightAware ADS-B
Fri 06:21:39 AM 51.9605 -3.6313 282° West 494 568 29,900  Descending FlightAware UK
Fri 06:21:43 AM 51.9600 -3.6260 282° West 488 562 30,000 150 Climbing FlightAware ADS-B
Fri 06:22:19 AM 51.9780 -3.7700 282° West 484 557 30,000 148 Level FlightAware ADS-B
Fri 06:23:04 AM 51.9980 -3.9290 282° West 484 557 30,200 1,200 Climbing FlightAware ADS-B
Fri 06:23:39 AM 52.0136 -4.0563 282° West 502 578 31,600 2,182 Climbing FlightAware UK
Fri 06:23:48 AM 52.0170 -4.0840 282° West 458 527 31,800 471 Climbing FlightAware ADS-B
Fri 06:24:30 AM 52.0340 -4.2230 281° West 454 522 32,000 146 Climbing FlightAware ADS-B
Fri 06:25:10 AM 52.0500 -4.3580 281° West 456 525 32,000 -133 Level FlightAware ADS-B
Fri 06:25:15 AM 52.0527 -4.3755 281° West 492 566 31,900 -146 Descending FlightAware UK
Fri 06:25:51 AM 52.0670 -4.4965 281° West 498 573 31,900 133 Level FlightAware UK
Fri 06:26:00 AM 52.0700 -4.5250 281° West 457 526 32,000 118 Climbing FlightAware ADS-B
Fri 06:26:42 AM 52.0870 -4.6670 281° West 454 522 32,000  Level FlightAware ADS-B
Fri 06:27:26 AM 52.1040 -4.8130 281° West 451 519 32,000  Level FlightAware ADS-B
Fri 06:28:08 AM 52.1250 -4.9440 285° West 445 512 32,000  Level FlightAware ADS-B
Fri 06:28:45 AM 52.1464 -5.0692 285° West 498 573 32,000  Level FlightAware UK
Fri 06:28:47 AM 52.1470 -5.0720 285° West 447 514 32,000  Level FlightAware ADS-B
Fri 06:29:31 AM 52.1700 -5.2170 285° West 446 513 32,000  Level FlightAware ADS-B
Fri 06:30:03 AM 52.1867 -5.3228 285° West 494 568 32,000  Level FlightAware UK
Fri 06:30:12 AM 52.1910 -5.3500 285° West 446 513 32,000  Level FlightAware ADS-B
Fri 06:30:54 AM 52.2120 -5.4870 284° West 448 516 32,000  Level FlightAware ADS-B
Fri 06:31:35 AM 52.2460 -5.6080 295° West 434 499 32,000 -80 Level FlightAware ADS-B
Fri 06:32:09 AM 52.2862 -5.7005 295° West 500 575 31,900  Descending FlightAware UK
Fri 06:32:20 AM 52.2980 -5.7240 295° West 429 494 32,000 111 Climbing FlightAware ADS-B
Fri 06:33:03 AM 52.3520 -5.8370 308° West 428 493 32,000  Level FlightAware ADS-B
Fri 06:33:33 AM 52.3890 -5.9135 308° West 504 580 32,000  Level FlightAware UK
Fri 06:33:42 AM 52.3980 -5.9340 308° West 422 486 32,000  Level FlightAware ADS-B
Fri 06:34:15 AM 52.4383 -6.0201 308° West 504 580 32,000  Level FlightAware UK
Fri 06:34:24 AM 52.4480 -6.0400 308° West 417 480 32,000  Level FlightAware ADS-B
Fri 06:35:08 AM 52.4990 -6.1510 307° West 413 475 32,000  Level FlightAware ADS-B
Fri 06:35:45 AM 52.5427 -6.2439 307° West 504 580 32,000  Level FlightAware UK
Fri 06:35:50 AM 52.5480 -6.2550 307° West 408 470 32,000  Level FlightAware ADS-B
Fri 06:36:42 AM 52.6070 -6.3810 307° West 400 460 32,000  Level FlightAware ADS-B
Fri 06:36:45 AM 52.6108 -6.3894 307° West 500 575 32,000 -154 Level FlightAware UK
Fri 06:37:21 AM 52.6511 -6.4763 307° West 500 575 31,900  Descending FlightAware UK
Fri 06:37:25 AM 52.6550 -6.4850 307° West 400 460 32,000  Climbing FlightAware ADS-B
Fri 06:37:57 AM 52.6914 -6.5633 307° West 500 575 31,900  Descending FlightAware UK
Fri 06:38:09 AM 52.7030 -6.5890 307° West 400 460 32,000 113 Climbing FlightAware ADS-B
Fri 06:38:50 AM 52.7490 -6.6880 308° West 402 463 32,000 -77 Level FlightAware ADS-B
Fri 06:39:27 AM 52.7920 -6.7817 308° West 502 578 31,900  Descending FlightAware UK
Fri 06:39:33 AM 52.7990 -6.7970 308° West 401 461 32,000 128 Climbing FlightAware ADS-B
Fri 06:40:14 AM 52.8440 -6.8950 308° West 400 460 32,000  Level FlightAware ADS-B
Fri 06:40:15 AM 52.8455 -6.8990 308° West 502 578 32,000 -194 Level FlightAware UK
Fri 06:40:45 AM 52.8788 -6.9722 308° West 502 578 31,900  Descending FlightAware UK
Fri 06:40:58 AM 52.8920 -7.0020 308° West 399 459 32,000 113 Climbing FlightAware ADS-B
Fri 06:41:38 AM 52.9370 -7.1010 307° West 398 458 32,000 -78 Level FlightAware ADS-B
Fri 06:42:15 AM 52.9782 -7.1915 307° West 502 578 31,900  Descending FlightAware UK
Fri 06:42:20 AM 52.9830 -7.2030 307° West 398 458 32,000 136 Climbing FlightAware ADS-B
Fri 06:42:59 AM 53.0260 -7.2990 307° West 398 458 32,000  Level FlightAware ADS-B
Fri 06:43:45 AM 53.0770 -7.4120 307° West 401 461 32,000  Level FlightAware ADS-B
Fri 06:44:26 AM 53.1229 -7.5146 307° West 500 575 32,000  Level FlightAware UK
Fri 06:44:26 AM 53.1210 -7.5100 307° West 401 461 32,000  Level FlightAware ADS-B
Fri 06:44:56 AM 53.1559 -7.5892 307° West 500 575 32,000  Level FlightAware UK
Fri 06:45:04 AM 53.1630 -7.6060 307° West 402 463 32,000  Level FlightAware ADS-B
Fri 06:45:50 AM 53.2140 -7.7210 307° West 403 464 32,000  Level FlightAware ADS-B
Fri 06:46:26 AM 53.2553 -7.8142 307° West 500 575 32,000  Level FlightAware UK
Fri 06:46:30 AM 53.2590 -7.8220 307° West 404 465 32,000  Level FlightAware ADS-B
Fri 06:47:16 AM 53.3080 -7.9350 306° West 404 465 32,000  Level FlightAware ADS-B
Fri 06:47:56 AM 53.3545 -8.0409 306° West 502 578 32,000  Level FlightAware UK
Fri 06:47:58 AM 53.3560 -8.0440 306° West 403 464 32,000  Level FlightAware ADS-B
Fri 06:48:35 AM 53.3950 -8.1340 306° West 403 464 32,000  Level FlightAware ADS-B
Fri 06:49:23 AM 53.4460 -8.2520 306° West 403 464 32,000  Level FlightAware ADS-B
Fri 06:49:56 AM 53.4859 -8.3437 306° West 502 578 32,000  Level FlightAware UK
Fri 06:50:00 AM 53.4890 -8.3510 306° West 401 461 32,000  Level FlightAware ADS-B
Fri 06:51:02 AM 53.5571 -8.5100 306° West 500 575 32,000  Level FlightAware UK
Fri 06:51:13 AM 53.5650 -8.5300 306° West 397 457 32,000  Level FlightAware ADS-B
Fri 06:51:48 AM 53.6010 -8.6140 306° West 397 457 32,000  Level FlightAware ADS-B
Fri 06:52:32 AM 53.6542 -8.7379 306° West 500 575 32,000  Level FlightAware UK
Fri 06:52:32 AM 53.6510 -8.7300 306° West 403 464 32,000  Level FlightAware ADS-B
Fri 06:53:02 AM 53.6864 -8.8141 306° West 502 578 32,000  Level FlightAware UK
Fri 06:53:17 AM 53.6990 -8.8440 306° West 403 464 32,000  Level FlightAware ADS-B
Fri 06:54:02 AM 53.7509 -8.9672 306° West 502 578 32,000  Level FlightAware UK
Fri 06:54:24 AM 53.7700 -9.0130 306° West 397 457 32,000  Level FlightAware ADS-B
Fri 06:55:25 AM 53.8370 -9.1730 305° West 399 459 32,000  Level FlightAware ADS-B
Fri 06:56:05 AM 53.8800 -9.2770 305° West 398 458 32,000  Level FlightAware ADS-B
Fri 06:57:03 AM 53.9420 -9.4260 305° West 402 463 32,000  Level FlightAware ADS-B
Fri 06:57:43 AM 53.9850 -9.5310 305° West 402 463 32,000  Level FlightAware ADS-B
Fri 06:58:23 AM 54.0270 -9.6330 305° West 403 464 32,000  Level FlightAware ADS-B
Fri 06:59:08 AM 54.0760 -9.7520 305° West 404 465 32,000  Level FlightAware ADS-B
Fri 06:59:49 AM 54.1180 -9.8560 305° West 404 465 32,000  Level FlightAware ADS-B
Fri 07:00:33 AM 54.1650 -9.9740 304° West 402 463 32,000  Level FlightAware ADS-B
Fri 07:01:13 AM 54.2060 -10.0760 305° West 402 463 32,000  Level FlightAware ADS-B
Fri 07:01:53 AM 54.2470 -10.1760 305° West 402 463 32,000  Level FlightAware ADS-B
Fri 07:02:40 AM 54.2980 -10.3040 304° West 401 461 32,000  Level FlightAware ADS-B
Fri 07:03:19 AM 54.3400 -10.4110 304° West 402 463 32,000  Level FlightAware ADS-B
Fri 07:03:59 AM 54.3810 -10.5150 304° West 401 461 32,000  Level FlightAware ADS-B
Fri 07:04:44 AM 54.4290 -10.6360 304° West 401 461 32,000  Level FlightAware ADS-B
Fri 07:05:29 AM 54.4720 -10.7440 304° West 403 464 32,000  Level FlightAware ADS-B
Fri 07:06:09 AM 54.5160 -10.8570 304° West 403 464 32,000  Level FlightAware ADS-B
Fri 07:06:49 AM 54.5570 -10.9650 303° West 401 461 32,000  Level FlightAware ADS-B
Fri 07:07:34 AM 54.6030 -11.0840 304° West 395 455 32,000  Level FlightAware ADS-B
Fri 07:08:14 AM 54.6450 -11.1920 304° West 396 456 32,000  Level FlightAware ADS-B
Fri 07:08:54 AM 54.6850 -11.2970 303° West 396 456 32,000  Level FlightAware ADS-B
Fri 07:09:39 AM 54.7320 -11.4190 304° West 396 456 32,000  Level FlightAware ADS-B
Fri 07:10:19 AM 54.7720 -11.5250 303° West 397 457 32,000  Level FlightAware ADS-B
Fri 07:11:44 AM 54.7940 -11.5830 303° West 397 457 32,000  Level FlightAware ADS-B
Fri 07:12:40 AM 54.9130 -11.8990 303° West 399 459 32,000  Level FlightAware ADS-B
Fri 07:13:21 AM 54.9520 -12.0050 303° West 399 459 32,000  Level FlightAware ADS-B
Fri 07:14:04 AM 54.9990 -12.1320 303° West 401 461 32,000  Level FlightAware ADS-B
Fri 07:14:49 AM 55.0450 -12.2550 303° West 403 464 32,000  Level FlightAware ADS-B
Fri 07:15:29 AM 55.0750 -12.3380 302° West 402 463 32,000  Level FlightAware ADS-B
Fri 07:16:04 AM 55.1210 -12.4640 303° West 403 464 32,000  Level FlightAware ADS-B
Fri 07:16:55 AM 55.1730 -12.6050 303° West 406 467 32,000  Level FlightAware ADS-B
Fri 07:17:34 AM 55.2130 -12.7160 302° West 407 468 32,000  Level FlightAware ADS-B
Fri 07:18:15 AM 55.2520 -12.8250 302° West 410 472 32,000  Level FlightAware ADS-B
Fri 07:18:55 AM 55.2940 -12.9430 302° West 411 473 32,000  Level FlightAware ADS-B
Fri 07:19:52 AM 55.3470 -13.0920 302° West 411 473 32,000  Level FlightAware ADS-B
Fri 07:21:17 AM 55.4170 -13.3000 301° West 411 473 32,000  Level FlightAware ADS-B
Fri 07:22:03 AM 55.4560 -13.4120 302° West 411 473 32,000  Level FlightAware ADS-B
Fri 07:22:39 AM 55.4860 -13.5000 301° West 411 473 32,000  Level FlightAware ADS-B
Fri 07:23:25 AM 55.5240 -13.6130 301° West 411 473 32,000  Level FlightAware ADS-B
Fri 07:24:01 AM 55.5540 -13.7010 301° West 411 473 32,000  Level FlightAware ADS-B
Fri 07:24:53 AM 55.5970 -13.8280 301° West 411 473 32,000  Level FlightAware ADS-B
Fri 07:25:30 AM 55.6280 -13.9190 301° West 411 473 32,000  Level FlightAware ADS-B
Fri 07:26:31 AM 55.6790 -14.0690 301° West 411 473 32,000  Level FlightAware ADS-B
Fri 07:27:10 AM 55.7110 -14.1650 301° West 411 473 32,000  Level FlightAware ADS-B
Fri 07:28:08 AM 55.7590 -14.3080 301° West 411 473 32,000  Level FlightAware ADS-B
Fri 07:28:42 AM 55.7880 -14.3910 302° West 411 473 32,000  Level FlightAware ADS-B
Fri 07:31:00 AM 55.8068 -14.8823 274° West  Level Estimated
Fri 07:32:00 AM 55.8142 -15.0926 274° West  Level Estimated
Fri 07:33:00 AM 55.8212 -15.3029 274° West  Level Estimated
Fri 07:34:00 AM 55.8279 -15.5134 273° West  Level Estimated
Fri 07:35:00 AM 55.8343 -15.7239 273° West  Level Estimated
Fri 07:36:00 AM 55.8402 -15.9344 273° West  Level Estimated
Fri 07:37:00 AM 55.8459 -16.1450 273° West  Level Estimated
Fri 07:38:00 AM 55.8511 -16.3557 273° West  Level Estimated
Fri 07:39:00 AM 55.8560 -16.5665 272° West  Level Estimated
Fri 07:40:00 AM 55.8606 -16.7773 272° West  Level Estimated
Fri 07:41:00 AM 55.8647 -16.9881 272° West  Level Estimated
Fri 07:42:00 AM 55.8686 -17.1990 272° West  Level Estimated
Fri 07:43:00 AM 55.8720 -17.4099 272° West  Level Estimated
Fri 07:44:00 AM 55.8751 -17.6208 272° West  Level Estimated
Fri 07:45:00 AM 55.8779 -17.8318 271° West  Level Estimated
Fri 07:46:00 AM 55.8802 -18.0429 271° West  Level Estimated
Fri 07:47:00 AM 55.8823 -18.2539 271° West  Level Estimated
Fri 07:48:00 AM 55.8839 -18.4650 271° West  Level Estimated
Fri 07:49:00 AM 55.8852 -18.6760 271° West  Level Estimated
Fri 07:50:00 AM 55.8862 -18.8871 271° West  Level Estimated
Fri 07:51:00 AM 55.8867 -19.0982 270° West  Level Estimated
Fri 07:52:00 AM 55.8870 -19.3093 270° West  Level Estimated
Fri 07:53:00 AM 55.8868 -19.5204 270° West  Level Estimated
Fri 07:54:00 AM 55.8863 -19.7315 270° West  Level Estimated
Fri 07:54:51 AM 57.0000 -20.0000 285° West 479 551 32,000  Level ETMS Enhanced Traffic Management System
Fri 07:55:00 AM 55.8854 -19.9426 270° West  Level Estimated
Fri 07:56:00 AM 55.8842 -20.1537 269° West  Level Estimated
Fri 07:57:00 AM 55.8826 -20.3648 269° West  Level Estimated
Fri 07:58:00 AM 55.8806 -20.5758 269° West  Level Estimated
Fri 07:59:00 AM 55.8783 -20.7868 269° West  Level Estimated
Fri 08:00:00 AM 57.1952 -21.4264 284° West 479 551 32,000  Level FlightAware Transoceanic
Fri 08:01:00 AM 57.2261 -21.6656 283° West 479 551 32,000  Level FlightAware Transoceanic
Fri 08:02:00 AM 57.2566 -21.9051 283° West 479 551 32,000  Level FlightAware Transoceanic
Fri 08:03:00 AM 57.2867 -22.1451 283° West 479 551 32,000  Level FlightAware Transoceanic
Fri 08:04:00 AM 57.3162 -22.3854 283° West 479 551 32,000  Level FlightAware Transoceanic
Fri 08:05:00 AM 57.3454 -22.6262 283° West 479 551 32,000  Level FlightAware Transoceanic
Fri 08:06:00 AM 57.3740 -22.8673 282° West 479 551 32,000  Level FlightAware Transoceanic
Fri 08:07:00 AM 57.4022 -23.1088 282° West 479 551 32,000  Level FlightAware Transoceanic
Fri 08:08:00 AM 57.4300 -23.3506 282° West 479 551 32,000  Level FlightAware Transoceanic
Fri 08:09:00 AM 57.4572 -23.5928 282° West 479 551 32,000  Level FlightAware Transoceanic
Fri 08:10:00 AM 57.4840 -23.8354 282° West 479 551 32,000  Level FlightAware Transoceanic
Fri 08:11:00 AM 57.5104 -24.0784 281° West 479 551 32,000  Level FlightAware Transoceanic
Fri 08:12:00 AM 57.5363 -24.3216 281° West 479 551 32,000  Level FlightAware Transoceanic
Fri 08:13:00 AM 57.5617 -24.5653 281° West 479 551 32,000  Level FlightAware Transoceanic
Fri 08:14:00 AM 57.5866 -24.8092 281° West 479 551 32,000  Level FlightAware Transoceanic
Fri 08:15:00 AM 57.6111 -25.0535 280° West 479 551 32,000  Level FlightAware Transoceanic
Fri 08:16:00 AM 57.6351 -25.2981 280° West 479 551 32,000  Level FlightAware Transoceanic
Fri 08:17:00 AM 57.6586 -25.5431 280° West 479 551 32,000  Level FlightAware Transoceanic
Fri 08:18:00 AM 57.6816 -25.7883 280° West 479 551 32,000  Level FlightAware Transoceanic
Fri 08:19:00 AM 57.7042 -26.0339 280° West 479 551 32,000  Level FlightAware Transoceanic
Fri 08:20:00 AM 57.7263 -26.2798 279° West 479 551 32,000  Level FlightAware Transoceanic
Fri 08:21:00 AM 57.7479 -26.5259 279° West 479 551 32,000  Level FlightAware Transoceanic
Fri 08:22:00 AM 57.7691 -26.7724 279° West 479 551 32,000  Level FlightAware Transoceanic
Fri 08:23:00 AM 57.7897 -27.0191 279° West 479 551 32,000  Level FlightAware Transoceanic
Fri 08:24:00 AM 57.8099 -27.2661 279° West 479 551 32,000  Level FlightAware Transoceanic
Fri 08:25:00 AM 57.8296 -27.5134 278° West 479 551 32,000  Level FlightAware Transoceanic
Fri 08:26:00 AM 57.8488 -27.7610 278° West 479 551 32,000  Level FlightAware Transoceanic
Fri 08:27:00 AM 57.8676 -28.0088 278° West 479 551 32,000  Level FlightAware Transoceanic
Fri 08:28:00 AM 57.8858 -28.2569 278° West 479 551 32,000  Level FlightAware Transoceanic
Fri 08:29:00 AM 57.9036 -28.5052 278° West 479 551 32,000  Level FlightAware Transoceanic
Fri 08:30:00 AM 57.9209 -28.7538 277° West 479 551 32,000  Level FlightAware Transoceanic
Fri 08:31:00 AM 57.9377 -29.0026 277° West 479 551 32,000  Level FlightAware Transoceanic
Fri 08:32:00 AM 57.9540 -29.2516 277° West 479 551 32,000  Level FlightAware Transoceanic
Fri 08:33:00 AM 57.9698 -29.5009 277° West 479 551 32,000  Level FlightAware Transoceanic
Fri 08:34:00 AM 57.9851 -29.7503 277° West 479 551 32,000  Level FlightAware Transoceanic
Fri 08:35:00 AM 57.9593 -29.9681 257° West  Level Estimated
Fri 08:36:00 AM 57.9330 -30.1857 257° West  Level Estimated
Fri 08:37:00 AM 57.9063 -30.4029 257° West  Level Estimated
Fri 08:38:00 AM 57.8793 -30.6203 257° West  Level Estimated
Fri 08:39:00 AM 57.8518 -30.8373 257° West  Level Estimated
Fri 08:40:00 AM 57.8240 -31.0540 257° West  Level Estimated
Fri 08:41:00 AM 57.7958 -31.2704 256° West  Level Estimated
Fri 08:42:00 AM 57.7673 -31.4864 256° West  Level Estimated
Fri 08:43:00 AM 57.7384 -31.7021 256° West  Level Estimated
Fri 08:44:00 AM 57.7091 -31.9175 256° West  Level Estimated
Fri 08:45:00 AM 57.6794 -32.1325 256° West  Level Estimated
Fri 08:46:00 AM 57.6494 -32.3471 255° West  Level Estimated
Fri 08:47:00 AM 57.6191 -32.5614 255° West  Level Estimated
Fri 08:48:00 AM 57.5883 -32.7754 255° West  Level Estimated
Fri 08:49:00 AM 57.5572 -32.9889 255° West  Level Estimated
Fri 08:50:00 AM 57.5258 -33.2021 255° West  Level Estimated
Fri 08:51:00 AM 57.4939 -33.4150 255° West  Level Estimated
Fri 08:52:00 AM 57.4618 -33.6274 254° West  Level Estimated
Fri 08:53:00 AM 57.4292 -33.8395 254° West  Level Estimated
Fri 08:54:00 AM 57.3964 -34.0512 254° West  Level Estimated
Fri 08:55:00 AM 57.3631 -34.2625 254° West  Level Estimated
Fri 08:56:00 AM 57.3295 -34.4735 254° West  Level Estimated
Fri 08:57:00 AM 57.2956 -34.6840 253° West  Level Estimated
Fri 08:58:00 AM 57.2613 -34.8942 253° West  Level Estimated
Fri 08:59:00 AM 57.2266 -35.1039 253° West  Level Estimated
Fri 09:00:00 AM 57.1916 -35.3133 253° West  Level Estimated
Fri 09:01:00 AM 57.1563 -35.5223 253° West  Level Estimated
Fri 09:02:00 AM 57.1206 -35.7309 253° West  Level Estimated
Fri 09:03:00 AM 57.0845 -35.9390 252° West  Level Estimated
Fri 09:04:00 AM 57.0482 -36.1468 252° West  Level Estimated
Fri 09:05:00 AM 57.0115 -36.3541 252° West  Level Estimated
Fri 09:06:00 AM 56.9744 -36.5611 252° West  Level Estimated
Fri 09:07:00 AM 56.9370 -36.7676 252° West  Level Estimated
Fri 09:08:00 AM 56.8992 -36.9737 252° West  Level Estimated
Fri 09:09:00 AM 56.8611 -37.1794 251° West  Level Estimated
Fri 09:10:00 AM 56.8227 -37.3847 251° West  Level Estimated
Fri 09:10:44 AM 57.2333 -38.0667 250° West 450 518 32,000  Level Gander Center
Fri 09:11:00 AM 56.7840 -37.5895 251° West  Level Estimated
Fri 09:11:44 AM 57.2000 -38.2833 254° West 450 518 32,000  Level Gander Center
Fri 09:12:00 AM 56.7449 -37.7940 251° West  Level Estimated
Fri 09:12:44 AM 57.1833 -38.5167 263° West 450 518 32,000  Level Gander Center
Fri 09:13:00 AM 56.7054 -37.9980 251° West  Level Estimated
Fri 09:13:44 AM 57.1500 -38.7333 254° West 450 518 32,000  Level Gander Center
Fri 09:14:00 AM 56.6657 -38.2015 251° West  Level Estimated
Fri 09:14:44 AM 57.1167 -38.9333 253° West 450 518 32,000  Level Gander Center
Fri 09:15:00 AM 56.6256 -38.4047 250° West  Level Estimated
Fri 09:15:44 AM 57.0833 -39.1833 256° West 450 518 32,000  Level Gander Center
Fri 09:16:44 AM 57.0500 -39.3833 253° West 460 529 32,000  Level Gander Center
Fri 09:17:44 AM 57.0333 -39.6333 263° West 460 529 32,000  Level Gander Center
Fri 09:18:44 AM 57.0000 -39.8333 253° West 450 518 32,000  Level Gander Center
Fri 09:19:44 AM 56.9833 -40.0667 263° West 460 529 32,000  Level Gander Center
Fri 09:20:44 AM 56.9667 -40.3000 263° West 460 529 32,000  Level Gander Center
Fri 09:21:44 AM 56.9500 -40.5333 263° West 450 518 32,000  Level Gander Center
Fri 09:22:44 AM 56.9500 -40.7500 270° West 450 518 32,000  Level Gander Center
Fri 09:23:44 AM 56.9333 -40.9833 263° West 450 518 32,000  Level Gander Center
Fri 09:24:44 AM 56.9167 -41.2167 263° West 450 518 32,000  Level Gander Center
Fri 09:25:44 AM 56.9000 -41.4500 263° West 460 529 32,000  Level Gander Center
Fri 09:26:44 AM 56.8833 -41.6667 262° West 460 529 32,000  Level Gander Center
Fri 09:27:44 AM 56.8667 -41.9000 263° West 450 518 32,000  Level Gander Center
Fri 09:28:44 AM 56.8500 -42.1333 263° West 460 529 32,000  Level Gander Center
Fri 09:29:44 AM 56.8333 -42.3333 261° West 460 529 32,000  Level Gander Center
Fri 09:30:44 AM 56.8000 -42.5667 255° West 460 529 32,000  Level Gander Center
Fri 09:31:44 AM 56.7833 -42.8167 263° West 460 529 32,000  Level Gander Center
Fri 09:32:44 AM 56.7667 -43.0500 263° West 460 529 32,000  Level Gander Center
Fri 09:33:44 AM 56.7500 -43.2667 262° West 460 529 32,000  Level Gander Center
Fri 09:34:44 AM 56.7333 -43.5000 263° West 460 529 32,000  Level Gander Center
Fri 09:35:44 AM 56.7000 -43.7333 256° West 460 529 32,000  Level Gander Center
Fri 09:36:44 AM 56.6833 -43.9500 262° West 460 529 32,000  Level Gander Center
Fri 09:37:44 AM 56.6667 -44.1833 263° West 460 529 32,000  Level Gander Center
Fri 09:38:44 AM 56.6500 -44.4000 262° West 460 529 32,000  Level Gander Center
Fri 09:39:44 AM 56.6333 -44.6333 263° West 450 518 32,000  Level Gander Center
Fri 09:40:44 AM 56.6000 -44.8667 256° West 450 518 32,000  Level Gander Center
Fri 09:41:44 AM 56.5833 -45.0500 261° West 450 518 32,000  Level Gander Center
Fri 09:42:44 AM 56.5500 -45.2833 256° West 450 518 32,000  Level Gander Center
Fri 09:43:44 AM 56.5333 -45.5000 262° West 450 518 32,000  Level Gander Center
Fri 09:44:44 AM 56.5167 -45.7333 263° West 450 518 32,000  Level Gander Center
Fri 09:45:44 AM 56.4833 -45.9500 255° West 450 518 32,000  Level Gander Center
Fri 09:46:44 AM 56.4667 -46.1833 263° West 450 518 32,000  Level Gander Center
Fri 09:47:44 AM 56.4333 -46.4000 255° West 450 518 32,000  Level Gander Center
Fri 09:48:44 AM 56.4167 -46.6333 263° West 450 518 32,000  Level Gander Center
Fri 09:49:44 AM 56.3833 -46.8500 255° West 450 518 32,000  Level Gander Center
Fri 09:50:44 AM 56.3667 -47.0500 262° West 450 518 32,000  Level Gander Center
Fri 09:51:44 AM 56.3333 -47.2667 255° West 450 518 32,000  Level Gander Center
Fri 09:52:44 AM 56.3167 -47.5000 263° West 450 518 32,000  Level Gander Center
Fri 09:53:44 AM 56.3000 -47.6833 261° West 450 518 32,000  Level Gander Center
Fri 09:54:44 AM 56.2667 -47.9333 257° West 440 506 32,000  Level Gander Center
Fri 09:55:44 AM 56.2500 -48.1333 262° West 440 506 32,000  Level Gander Center
Fri 09:56:36 AM 56.2000 -48.3000 242° Southwest 440 506 32,000  Level Gander Center
Fri 09:58:00 AM 56.1144 -48.5688 240° Southwest  Level FlightAware Approximate
Fri 10:05:00 AM 55.6851 -49.8738 240° Southwest  Level FlightAware Approximate
Fri 10:06:00 AM 55.6227 -50.0579 239° Southwest  Level FlightAware Approximate
Fri 10:07:00 AM 55.5600 -50.2414 239° Southwest  Level FlightAware Approximate
Fri 10:08:00 AM 55.4969 -50.4243 239° Southwest  Level FlightAware Approximate
Fri 10:09:00 AM 55.4337 -50.6067 239° Southwest  Level FlightAware Approximate
Fri 10:10:00 AM 55.3701 -50.7884 238° Southwest  Level FlightAware Approximate
Fri 10:11:00 AM 55.3063 -50.9696 238° Southwest  Level FlightAware Approximate
Fri 10:12:00 AM 55.2422 -51.1501 238° Southwest  Level FlightAware Approximate
Fri 10:13:00 AM 55.1779 -51.3301 238° Southwest  Level FlightAware Approximate
Fri 10:14:00 AM 55.1133 -51.5095 238° Southwest  Level FlightAware Approximate
Fri 10:15:00 AM 55.0484 -51.6884 238° Southwest  Level FlightAware Approximate
Fri 10:16:00 AM 54.9833 -51.8666 238° Southwest  Level FlightAware Approximate
Fri 10:17:00 AM 54.9179 -52.0443 237° Southwest  Level FlightAware Approximate
Fri 10:18:00 AM 54.8523 -52.2214 237° Southwest  Level FlightAware Approximate
Fri 10:19:00 AM 54.7864 -52.3979 237° Southwest  Level FlightAware Approximate
Fri 10:20:00 AM 54.7202 -52.5738 237° Southwest  Level FlightAware Approximate
Fri 10:21:00 AM 54.6538 -52.7492 237° Southwest  Level FlightAware Approximate
Fri 10:22:00 AM 54.5871 -52.9240 237° Southwest  Level FlightAware Approximate
Fri 10:23:00 AM 54.5202 -53.0982 237° Southwest  Level FlightAware Approximate
Fri 10:24:00 AM 54.4530 -53.2719 236° Southwest  Level FlightAware Approximate
Fri 10:25:00 AM 54.3856 -53.4449 236° Southwest  Level FlightAware Approximate
Fri 10:26:00 AM 54.3180 -53.6175 236° Southwest  Level FlightAware Approximate
Fri 10:27:00 AM 54.2500 -53.7894 236° Southwest  Level FlightAware Approximate
Fri 10:28:00 AM 54.1819 -53.9608 236° Southwest  Level FlightAware Approximate
Fri 10:29:00 AM 54.1135 -54.1316 236° Southwest  Level FlightAware Approximate
Fri 10:29:41 AM 54.8333 -54.9500 232° Southwest 430 495 32,000  Level Gander Center
Fri 10:30:00 AM 54.0449 -54.3018 236° Southwest  Level FlightAware Approximate
Fri 10:30:41 AM 54.8000 -55.1333 253° West 430 495 32,000  Level Gander Center
Fri 10:31:00 AM 53.9760 -54.4715 235° Southwest  Level FlightAware Approximate
Fri 10:31:41 AM 54.7500 -55.3167 245° Southwest 430 495 32,000  Level Gander Center
Fri 10:32:00 AM 53.9069 -54.6406 235° Southwest  Level FlightAware Approximate
Fri 10:32:41 AM 54.7000 -55.5000 245° Southwest 430 495 32,000  Level Gander Center
Fri 10:33:00 AM 53.8309 -54.8042 232° Southwest  Level Estimated
Fri 10:33:47 AM 54.6167 -55.6833 232° Southwest 420 483 32,000  Level Gander Center
Fri 10:34:00 AM 53.7547 -54.9671 232° Southwest  Level Estimated
Fri 10:34:47 AM 54.5500 -55.8333 233° Southwest 430 495 32,000  Level Gander Center
Fri 10:35:00 AM 53.6782 -55.1295 232° Southwest  Level Estimated
Fri 10:35:47 AM 54.4833 -55.9833 233° Southwest 430 495 32,900  Level Gander Center
Fri 10:36:47 AM 54.4167 -56.1333 233° Southwest 420 483 34,600 1,389 Climbing Gander Center
Fri 10:37:35 AM 54.3500 -56.2833 233° Southwest 430 495 35,400 700 Climbing Moncton Center
Fri 10:38:47 AM 54.2333 -56.4833 225° Southwest 440 506 36,000 273 Climbing Gander Center
Fri 10:39:47 AM 54.1667 -56.6333 233° Southwest 450 518 36,000  Level Gander Center
Fri 10:40:47 AM 54.0833 -56.7833 227° Southwest 460 529 36,000  Level Gander Center
Fri 10:41:47 AM 53.9833 -56.9667 227° Southwest 460 529 36,000  Level Gander Center
Fri 10:42:47 AM 53.9167 -57.1167 233° Southwest 460 529 36,000  Level Gander Center
Fri 10:43:47 AM 53.8333 -57.2833 230° Southwest 460 529 36,000  Level Gander Center
Fri 10:44:47 AM 53.7500 -57.4333 227° Southwest 450 518 36,000  Level Gander Center
Fri 10:45:47 AM 53.6667 -57.6167 233° Southwest 450 518 36,000  Level Gander Center
Fri 10:46:47 AM 53.5833 -57.7667 227° Southwest 450 518 36,000  Level Gander Center
Fri 10:47:47 AM 53.4833 -57.9167 222° Southwest 450 518 36,000  Level Gander Center
Fri 10:48:35 AM 53.4333 -58.0500 238° Southwest 460 529 36,000  Level Moncton Center
Fri 10:49:35 AM 53.3333 -58.2000 222° Southwest 460 529 36,000  Level Moncton Center
Fri 10:50:35 AM 53.2500 -58.3500 227° Southwest 450 518 36,000  Level Moncton Center
Fri 10:51:35 AM 53.1667 -58.5167 230° Southwest 450 518 36,000  Level Moncton Center
Fri 10:52:35 AM 53.0833 -58.6667 227° Southwest 450 518 36,000  Level Moncton Center
Fri 10:53:35 AM 53.0000 -58.8167 227° Southwest 460 529 36,000  Level Moncton Center
Fri 10:54:35 AM 52.9167 -58.9667 227° Southwest 450 518 36,000  Level Moncton Center
Fri 10:55:35 AM 52.8167 -59.1333 225° Southwest 450 518 36,000  Level Moncton Center
Fri 10:56:35 AM 52.7333 -59.2833 227° Southwest 450 518 36,000  Level Moncton Center
Fri 10:57:35 AM 52.6500 -59.4333 228° Southwest 450 518 36,000  Level Moncton Center
Fri 10:58:35 AM 52.5500 -59.5833 222° Southwest 450 518 36,000  Level Moncton Center
Fri 10:59:35 AM 52.4833 -59.7333 234° Southwest 450 518 36,000  Level Moncton Center
Fri 11:00:35 AM 52.3833 -59.8667 219° Southwest 450 518 36,000  Level Moncton Center
Fri 11:01:35 AM 52.3000 -60.0167 228° Southwest 450 518 36,000  Level Moncton Center
Fri 11:02:35 AM 52.2167 -60.1833 231° Southwest 460 529 36,000  Level Moncton Center
Fri 11:03:35 AM 52.1333 -60.3333 228° Southwest 460 529 36,000  Level Moncton Center
Fri 11:04:35 AM 52.0333 -60.4833 223° Southwest 460 529 36,000  Level Moncton Center
Fri 11:05:35 AM 51.9500 -60.6167 225° Southwest 460 529 36,000  Level Moncton Center
Fri 11:06:35 AM 51.8667 -60.7667 228° Southwest 460 529 36,000  Level Moncton Center
Fri 11:07:35 AM 51.7667 -60.9333 226° Southwest 460 529 36,000  Level Moncton Center
Fri 11:08:35 AM 51.6833 -61.0833 228° Southwest 460 529 36,000  Level Moncton Center
Fri 11:09:35 AM 51.5833 -61.2167 220° Southwest 460 529 36,000  Level Moncton Center
Fri 11:10:35 AM 51.5000 -61.3667 228° Southwest 460 529 36,000  Level Moncton Center
Fri 11:11:35 AM 51.4167 -61.5333 231° Southwest 460 529 36,000  Level Moncton Center
Fri 11:12:35 AM 51.3167 -61.6667 220° Southwest 460 529 36,000  Level Moncton Center
Fri 11:13:35 AM 51.2333 -61.8000 225° Southwest 460 529 36,000  Level Moncton Center
Fri 11:14:35 AM 51.1333 -61.9667 226° Southwest 460 529 36,000  Level Moncton Center
Fri 11:15:35 AM 51.0500 -62.0833 221° Southwest 470 541 36,000  Level Moncton Center
Fri 11:16:35 AM 50.9500 -62.2500 226° Southwest 460 529 36,000  Level Moncton Center
Fri 11:17:35 AM 50.8667 -62.3833 225° Southwest 460 529 36,000  Level Moncton Center
Fri 11:18:35 AM 50.7667 -62.5500 227° Southwest 460 529 36,000  Level Moncton Center
Fri 11:19:35 AM 50.6833 -62.6833 225° Southwest 470 541 36,000  Level Moncton Center
Fri 11:20:35 AM 50.5833 -62.8167 220° Southwest 460 529 36,000  Level Moncton Center
Fri 11:21:35 AM 50.4833 -62.9500 220° Southwest 470 541 36,000  Level Moncton Center
Fri 11:22:35 AM 50.4000 -63.0833 226° Southwest 460 529 36,000  Level Moncton Center
Fri 11:23:35 AM 50.3000 -63.2500 227° Southwest 460 529 36,000  Level Moncton Center
Fri 11:24:35 AM 50.2167 -63.3833 226° Southwest 460 529 36,000  Level Moncton Center
Fri 11:25:35 AM 50.1167 -63.5167 221° Southwest 460 529 36,000  Level Moncton Center
Fri 11:26:35 AM 50.0167 -63.6333 217° Southwest 460 529 36,000  Level Moncton Center
Fri 11:27:35 AM 49.9167 -63.8000 227° Southwest 460 529 36,000  Level Moncton Center
Fri 11:28:35 AM 49.8500 -63.9333 232° Southwest 460 529 36,000  Level Moncton Center
Fri 11:29:35 AM 49.7500 -64.0667 221° Southwest 470 541 36,000  Level Moncton Center
Fri 11:30:35 AM 49.6333 -64.2167 220° Southwest 470 541 36,000  Level Moncton Center
Fri 11:31:35 AM 49.5500 -64.3500 226° Southwest 470 541 36,000  Level Moncton Center
Fri 11:32:35 AM 49.4500 -64.4667 217° Southwest 470 541 36,000  Level Moncton Center
Fri 11:33:35 AM 49.3500 -64.6333 227° Southwest 470 541 36,000  Level Moncton Center
Fri 11:34:35 AM 49.2500 -64.7500 217° Southwest 470 541 36,000  Level Moncton Center
Fri 11:35:35 AM 49.1667 -64.8833 226° Southwest 480 552 36,000  Level Moncton Center
Fri 11:36:35 AM 49.0667 -65.0333 225° Southwest 480 552 36,000  Level Moncton Center
Fri 11:37:35 AM 48.9667 -65.1667 221° Southwest 480 552 36,000  Level Moncton Center
Fri 11:38:35 AM 48.8667 -65.2833 218° Southwest 480 552 36,000  Level Moncton Center
Fri 11:39:35 AM 48.7667 -65.4333 225° Southwest 480 552 36,000  Level Moncton Center
Fri 11:40:35 AM 48.6833 -65.5667 227° Southwest 480 552 36,000  Level Moncton Center
Fri 11:41:35 AM 48.5833 -65.7167 225° Southwest 470 541 36,000  Level Moncton Center
Fri 11:42:35 AM 48.4833 -65.8333 218° Southwest 480 552 36,000  Level Moncton Center
Fri 11:43:35 AM 48.3833 -65.9833 225° Southwest 480 552 36,000  Level Moncton Center
Fri 11:44:35 AM 48.2667 -66.1000 214° Southwest 480 552 36,000  Level Moncton Center
Fri 11:45:35 AM 48.1667 -66.2333 222° Southwest 480 552 36,000  Level Moncton Center
Fri 11:46:35 AM 48.0667 -66.3833 225° Southwest 480 552 36,000  Level Moncton Center
Fri 11:47:35 AM 47.9833 -66.5000 223° Southwest 480 552 36,000  Level Moncton Center
Fri 11:48:35 AM 47.8667 -66.6500 221° Southwest 480 552 36,000  Level Moncton Center
Fri 11:54:48 AM 47.2210 -67.4170 221° Southwest 496 571 36,000  Level FlightAware ADS-B
Fri 11:55:48 AM 47.1030 -67.5190 210° Southwest 495 570 36,000  Level FlightAware ADS-B
Fri 11:56:54 AM 47.0120 -67.5980 211° Southwest 496 571 36,000  Level FlightAware ADS-B
Fri 11:57:33 AM 46.8970 -67.6970 210° Southwest 495 570 36,000  Level FlightAware ADS-B
Fri 11:58:13 AM 46.8150 -67.7670 210° Southwest 494 568 36,000  Level FlightAware ADS-B
Fri 11:58:51 AM 46.7470 -67.8250 210° Southwest 493 567 36,000  Level FlightAware ADS-B
Fri 11:59:30 AM 46.6740 -67.8870 210° Southwest 492 566 36,000  Level FlightAware ADS-B
Fri 12:00:11 PM 46.5900 -67.9580 210° Southwest 494 568 36,000  Level FlightAware ADS-B
Fri 12:00:52 PM 46.5150 -68.0210 210° Southwest 494 568 36,000  Level FlightAware ADS-B
Fri 12:01:33 PM 46.4210 -68.1000 210° Southwest 497 572 36,000  Level FlightAware ADS-B
Fri 12:02:18 PM 46.3310 -68.1750 210° Southwest 500 575 36,000  Level FlightAware ADS-B
Fri 12:03:03 PM 46.2420 -68.2500 210° Southwest 504 580 36,000  Level FlightAware ADS-B
Fri 12:03:43 PM 46.1610 -68.3170 210° Southwest 506 582 36,000  Level FlightAware ADS-B
Fri 12:04:23 PM 46.0800 -68.3840 210° Southwest 503 579 36,000  Level FlightAware ADS-B
Fri 12:05:04 PM 46.0020 -68.4490 210° Southwest 502 578 36,000  Level FlightAware ADS-B
Fri 12:05:50 PM 45.9050 -68.5280 210° Southwest 499 574 36,000  Level FlightAware ADS-B
Fri 12:06:31 PM 45.8350 -68.5860 210° Southwest 492 566 36,000  Level FlightAware ADS-B
Fri 12:07:12 PM 45.7430 -68.6610 210° Southwest 488 562 36,000  Level FlightAware ADS-B
Fri 12:07:57 PM 45.6600 -68.7290 210° Southwest 482 555 36,000  Level FlightAware ADS-B
Fri 12:08:38 PM 45.5790 -68.7940 209° Southwest 482 555 36,000  Level FlightAware ADS-B
Fri 12:09:12 PM 45.5120 -68.8490 210° Southwest 483 556 36,000  Level FlightAware ADS-B
Fri 12:09:58 PM 45.4200 -68.9220 209° Southwest 484 557 36,000  Level FlightAware ADS-B
Fri 12:10:44 PM 45.3310 -68.9940 210° Southwest 486 559 36,000  Level FlightAware ADS-B
Fri 12:11:24 PM 45.2540 -69.0550 209° Southwest 486 559 36,000  Level FlightAware ADS-B
Fri 12:12:06 PM 45.1740 -69.1190 209° Southwest 488 562 36,000  Level FlightAware ADS-B
Fri 12:12:48 PM 45.0880 -69.1870 209° Southwest 484 557 36,000  Level FlightAware ADS-B
Fri 12:13:28 PM 45.0090 -69.2500 209° Southwest 483 556 36,000  Level FlightAware ADS-B
Fri 12:14:11 PM 44.9260 -69.3150 209° Southwest 483 556 36,000  Level FlightAware ADS-B
Fri 12:14:57 PM 44.8370 -69.3860 210° Southwest 485 558 36,000  Level FlightAware ADS-B
Fri 12:15:35 PM 44.7750 -69.4340 209° Southwest 487 560 36,000  Level FlightAware ADS-B
Fri 12:16:17 PM 44.6790 -69.5090 209° Southwest 491 565 36,000  Level FlightAware ADS-B
Fri 12:17:01 PM 44.5920 -69.5770 209° Southwest 492 566 36,000  Level FlightAware ADS-B
Fri 12:17:40 PM 44.5200 -69.6330 209° Southwest 495 570 36,000  Level FlightAware ADS-B
Fri 12:18:27 PM 44.4200 -69.7110 209° Southwest 499 574 36,000  Level FlightAware ADS-B
Fri 12:19:01 PM 44.3480 -69.7660 209° Southwest 501 577 36,000  Level FlightAware ADS-B
Fri 12:19:47 PM 44.2550 -69.8370 209° Southwest 504 580 36,000  Level FlightAware ADS-B
Fri 12:20:45 PM 44.1370 -69.9280 209° Southwest 504 580 36,000  Level FlightAware ADS-B
Fri 12:21:26 PM 44.0550 -69.9900 209° Southwest 506 582 36,000  Level FlightAware ADS-B
Fri 12:22:05 PM 43.9720 -70.0530 209° Southwest 509 586 36,000  Level FlightAware ADS-B
Fri 12:22:49 PM 43.8810 -70.1220 209° Southwest 512 589 36,000  Level FlightAware ADS-B
Fri 12:23:33 PM 43.7900 -70.1910 209° Southwest 514 592 36,000  Level FlightAware ADS-B
Fri 12:24:15 PM 43.7030 -70.2560 208° Southwest 511 588 36,000  Level FlightAware ADS-B
Fri 12:24:59 PM 43.6110 -70.3260 209° Southwest 505 581 36,000  Level FlightAware ADS-B
Fri 12:25:54 PM 43.5170 -70.3960 208° Southwest 501 577 36,000  Level FlightAware ADS-B
Fri 12:26:35 PM 43.4150 -70.4710 208° Southwest 500 575 36,000 -296 Level FlightAware ADS-B
Fri 12:27:15 PM 43.3350 -70.5310 209° Southwest 498 573 35,600 -1,286 Descending FlightAware ADS-B
Fri 12:27:59 PM 43.2460 -70.5970 208° Southwest 493 567 34,200 -2,023 Descending FlightAware ADS-B
Fri 12:28:41 PM 43.1610 -70.6590 208° Southwest 484 557 32,700 -2,000 Descending FlightAware ADS-B
Fri 12:29:23 PM 43.0810 -70.7180 208° Southwest 468 539 31,400 -1,674 Descending FlightAware ADS-B
Fri 12:30:07 PM 42.9980 -70.7790 208° Southwest 469 540 30,300 -1,000 Descending FlightAware ADS-B
Fri 12:30:47 PM 42.9220 -70.8340 208° Southwest 462 532 30,000 -217 Descending FlightAware ADS-B
Fri 12:31:30 PM 42.8400 -70.8940 208° Southwest 465 535 30,000  Level FlightAware ADS-B
Fri 12:32:09 PM 42.7650 -70.9360 202° Southwest 473 544 30,000  Level FlightAware ADS-B
Fri 12:32:50 PM 42.6760 -70.9790 200° South 478 550 30,000  Level FlightAware ADS-B
Fri 12:33:36 PM 42.5800 -71.0270 200° South 475 547 30,000  Level FlightAware ADS-B
Fri 12:34:16 PM 42.5020 -71.0750 204° Southwest 472 543 30,000  Level FlightAware ADS-B
Fri 12:34:56 PM 42.4280 -71.1260 207° Southwest 471 542 30,000  Level FlightAware ADS-B
Fri 12:35:36 PM 42.3460 -71.1840 208° Southwest 472 543 30,000  Level FlightAware ADS-B
Fri 12:36:18 PM 42.2660 -71.2410 208° Southwest 474 545 30,000  Level FlightAware ADS-B
Fri 12:37:06 PM 42.1710 -71.3070 207° Southwest 475 547 30,000  Level FlightAware ADS-B
Fri 12:37:45 PM 42.1080 -71.3510 207° Southwest 476 548 30,000  Level FlightAware ADS-B
Fri 12:38:27 PM 42.0230 -71.4110 208° Southwest 478 550 30,000  Level FlightAware ADS-B
Fri 12:39:11 PM 41.9410 -71.4670 207° Southwest 478 550 30,000  Level FlightAware ADS-B
Fri 12:39:53 PM 41.8460 -71.5330 207° Southwest 473 544 30,000  Level FlightAware ADS-B
Fri 12:40:51 PM 41.7380 -71.6080 207° Southwest 472 543 30,000 -300 Level FlightAware ADS-B
Fri 12:41:33 PM 41.6560 -71.6640 207° Southwest 464 534 29,500 -1,171 Descending FlightAware ADS-B
Fri 12:42:13 PM 41.5810 -71.7150 207° Southwest 449 517 28,400 -1,725 Descending FlightAware ADS-B
Fri 12:42:53 PM 41.5040 -71.7680 207° Southwest 435 501 27,200 -1,860 Descending FlightAware ADS-B
Fri 12:43:53 PM 41.3970 -71.8410 207° Southwest 422 486 25,300 -1,895 Descending FlightAware ADS-B
Fri 12:44:28 PM 41.3380 -71.8810 207° Southwest 417 480 24,200 -975 Descending FlightAware ADS-B
Fri 12:45:13 PM 41.2630 -71.9420 211° Southwest 404 465 24,000 -135 Descending FlightAware ADS-B
Fri 12:45:57 PM 41.2070 -71.9980 217° Southwest 404 465 24,000 -971 Level FlightAware ADS-B
Fri 12:46:58 PM 41.1920 -72.0180 225° Southwest 392 451 22,300 -2,588 Descending FlightAware ADS-B
Fri 12:47:39 PM 41.0840 -72.1820 229° Southwest 365 420 19,600 -2,000 Descending FlightAware ADS-B
Fri 12:48:19 PM 41.0650 -72.2540 251° West 365 420 19,600  Level FlightAware ADS-B
Fri 12:48:55 PM 41.0490 -72.3190 252° West 365 420 19,600 -2,819 Level FlightAware ADS-B
Fri 12:49:42 PM 41.0210 -72.4380 253° West 344 396 15,700 -3,640 Descending FlightAware ADS-B
Fri 12:50:24 PM 41.0000 -72.5210 251° West 343 395 14,200 -1,516 Descending FlightAware ADS-B
Fri 12:51:17 PM 40.9770 -72.6100 251° West 340 391 13,300 -593 Descending FlightAware ADS-B
Fri 12:51:55 PM 40.9600 -72.6740 251° West 340 391 13,300 -1,172 Level FlightAware ADS-B
Fri 12:52:44 PM 40.9350 -72.7780 252° West 287 330 11,600 -1,594 Descending FlightAware ADS-B
Fri 12:52:59 PM 40.9240 -72.8010 238° Southwest 291 335 11,600 -310 Level FlightAware ADS-B
Fri 12:53:42 PM 40.8820 -72.8500 221° Southwest 296 341 11,300 -867 Descending FlightAware ADS-B
Fri 12:54:22 PM 40.8390 -72.9020 222° Southwest 292 336 10,400 -1,304 Descending FlightAware ADS-B
Fri 12:54:51 PM 40.8100 -72.9370 222° Southwest 291 335 9,800 -1,333 Descending FlightAware ADS-B
Fri 12:55:07 PM 40.7940 -72.9570 223° Southwest 290 334 9,400 -1,350 Descending FlightAware ADS-B
Fri 12:55:31 PM 40.7750 -72.9900 233° Southwest 283 326 8,900 -1,304 Descending FlightAware ADS-B
Fri 12:55:53 PM 40.7620 -73.0250 244° Southwest 282 325 8,400 -1,167 Descending FlightAware ADS-B
Fri 12:56:07 PM 40.7560 -73.0410 244° Southwest 280 322 8,200 -1,105 Descending FlightAware ADS-B
Fri 12:56:31 PM 40.7430 -73.0760 244° Southwest 278 320 7,700 -1,385 Descending FlightAware ADS-B
Fri 12:56:59 PM 40.7260 -73.1240 245° Southwest 281 323 7,000 -1,500 Descending FlightAware ADS-B
Fri 12:57:19 PM 40.7150 -73.1560 246° West 282 325 6,500 -1,304 Descending FlightAware ADS-B
Fri 12:57:45 PM 40.7010 -73.1970 246° West 280 322 6,000 -1,000 Descending FlightAware ADS-B
Fri 12:58:13 PM 40.6920 -73.2330 252° West 274 315 5,600 -1,000 Descending FlightAware ADS-B
Fri 12:58:45 PM 40.7120 -73.2870 296° West 261 300 5,000 -941 Descending FlightAware ADS-B
Fri 12:59:04 PM 40.7260 -73.3110 308° West 251 289 4,800 -600 Descending FlightAware ADS-B
Fri 12:59:35 PM 40.7470 -73.3470 308° West 237 273 4,500 -692 Descending FlightAware ADS-B
Fri 01:00:22 PM 40.7780 -73.3990 308° West 222 255 3,900 -892 Descending FlightAware ADS-B
Fri 01:00:49 PM 40.7880 -73.4300 293° West 220 253 3,400 -764 Descending FlightAware ADS-B
Fri 01:01:17 PM 40.7870 -73.4680 268° West 210 242 3,200 -429 Descending FlightAware ADS-B
Fri 01:01:31 PM 40.7860 -73.4840 265° West 200 230 3,100 -286 Descending FlightAware ADS-B
Fri 01:01:59 PM 40.7840 -73.5170 265° West 182 209 3,000 -444 Descending FlightAware ADS-B
Fri 01:02:25 PM 40.7820 -73.5460 265° West 182 209 2,700 -429 Descending FlightAware ADS-B
Fri 01:02:55 PM 40.7790 -73.5770 263° West 163 188 2,600 -293 Descending FlightAware ADS-B
Fri 01:03:06 PM 40.7750 -73.5860 240° Southwest 165 190 2,500 -632 Descending FlightAware ADS-B
Fri 01:03:33 PM 40.7620 -73.6070 231° Southwest 163 188 2,200 -558 Descending FlightAware ADS-B
Fri 01:03:49 PM 40.7550 -73.6200 235° Southwest 161 185 2,100 -409 Descending FlightAware ADS-B
Fri 01:04:17 PM 40.7420 -73.6430 233° Southwest 160 184 1,900 -421 Descending FlightAware ADS-B
Fri 01:04:46 PM 40.7290 -73.6640 231° Southwest 159 183 1,700 -436 Descending FlightAware ADS-B
Fri 01:05:12 PM 40.7170 -73.6780 221° Southwest 158 182 1,500 -632 Descending FlightAware ADS-B
Fri 01:05:43 PM 40.6980 -73.7000 221° Southwest 152 175 1,100 -900 Descending FlightAware ADS-B
Fri 01:06:12 PM 40.6830 -73.7180 222° Southwest 151 174 600 -889 Descending FlightAware ADS-B
Fri 01:06:37 PM 40.6710 -73.7340 225° Southwest 146 168 300 -720 Descending FlightAware ADS-B
Fri 01:07:23 PM 40.6450 -73.7550 212° Southwest 147 169 -391 Descending FlightAware ADS-B
Fri 01:07:51 PM 40.6330 -73.7650 212° Southwest 49 56  Level FlightAware ADS-B
Fri 01:08:17 PM 40.6300 -73.7680 217° Southwest 22 25  Level FlightAware ADS-B
Fri 01:08:57 PM 40.6300 -73.7710 270° West 19 22  Level FlightAware ADS-B
Fri 01:09:25 PM 40.6320 -73.7750 303° West 24 28  Level FlightAware ADS-B

Login

Don't have an account? Register now (free) for customized features, flight alerts, and more!